Time;durP1;ratioP1;P1;durP2;ratioP2;P2;SDS_P1;SDS_P2;PMS_P1;PMS_P2;Temp;Humidity;BMP_temperature;BMP_pressure;BME280_temperature;BME280_humidity;BME280_pressure;Samples;Min_cycle;Max_cycle;Signal;HPM_P1;HPM_P2
2021/03/23 00:01:14;;;;;;;24.75;12.82;;;3.20;73.50;;;2.05;60.16;95351.34;5008824;28;20235;-87
2021/03/23 00:03:47;;;;;;;26.02;13.15;;;3.10;73.60;;;2.02;60.48;95357.59;5033182;28;20559;-86
2021/03/23 00:06:25;;;;;;;28.27;13.85;;;3.10;74.00;;;2.02;60.75;95361.97;5030245;28;20232;-86
2021/03/23 00:08:56;;;;;;;21.98;13.38;;;3.10;74.30;;;2.02;60.82;95354.19;5013131;28;20200;-85
2021/03/23 00:11:41;;;;;;;24.95;12.98;;;3.10;74.30;;;2.01;60.51;95361.13;5013504;28;20278;-87
2021/03/23 00:14:12;;;;;;;26.58;13.05;;;3.20;74.40;;;1.99;60.17;95354.44;5029997;28;20539;-86
2021/03/23 00:16:44;;;;;;;25.13;13.25;;;3.10;74.20;;;1.94;59.93;95357.41;5013472;28;20290;-86
2021/03/23 00:19:14;;;;;;;26.77;13.75;;;3.10;74.20;;;1.86;60.21;95345.13;5013951;28;20197;-86
2021/03/23 00:21:42;;;;;;;27.20;13.50;;;3.10;74.00;;;1.92;60.24;95360.13;5030453;28;20255;-87
2021/03/23 00:24:10;;;;;;;26.50;14.27;;;3.10;74.00;;;1.87;60.99;95354.50;5050132;28;20278;-87
2021/03/23 00:26:37;;;;;;;23.10;13.38;;;3.10;74.30;;;1.89;60.37;95356.97;5050139;28;20212;-86
2021/03/23 00:29:04;;;;;;;23.73;12.70;;;3.00;74.30;;;1.83;59.87;95341.97;5027243;28;20200;-86
2021/03/23 00:31:33;;;;;;;25.15;13.15;;;3.00;74.20;;;1.88;60.32;95345.81;5021620;28;20285;-86
2021/03/23 00:34:04;;;;;;;24.90;13.45;;;3.00;75.00;;;1.86;61.06;95346.91;5032798;28;20291;-86
2021/03/23 00:36:40;;;;;;;25.60;13.90;;;3.10;74.40;;;1.86;60.78;95341.72;5034070;28;20224;-86
2021/03/23 00:39:10;;;;;;;28.30;14.07;;;3.00;74.70;;;1.85;60.79;95338.28;5044360;28;20192;-86
2021/03/23 00:41:40;;;;;;;24.00;13.75;;;3.00;74.60;;;1.87;60.64;95356.28;5021518;28;20236;-86
2021/03/23 00:44:11;;;;;;;24.40;13.88;;;2.90;74.70;;;1.86;61.49;95349.47;5026876;28;20200;-86
2021/03/23 00:46:38;;;;;;;25.63;14.55;;;3.00;74.90;;;1.84;61.00;95347.00;5022072;28;20220;-87
2021/03/23 00:49:06;;;;;;;25.42;14.27;;;2.90;74.80;;;1.89;61.13;95347.47;5041020;28;20635;-86
2021/03/23 00:51:32;;;;;;;26.48;15.05;;;2.90;75.50;;;1.87;61.15;95336.41;5048576;28;20712;-87
2021/03/23 00:53:59;;;;;;;24.75;13.80;;;3.00;74.90;;;1.92;60.93;95341.22;5017969;28;20201;-86
2021/03/23 00:56:26;;;;;;;25.75;13.55;;;3.00;74.80;;;1.95;60.84;95340.13;5044297;28;20226;-86
2021/03/23 00:58:53;;;;;;;31.75;14.32;;;2.90;74.70;;;1.97;60.60;95346.81;5039537;28;20188;-87
2021/03/23 01:01:20;;;;;;;21.77;13.55;;;3.00;74.80;;;1.96;60.57;95340.00;5032931;28;20705;-86
2021/03/23 01:03:47;;;;;;;26.05;14.48;;;3.00;74.70;;;2.00;60.68;95341.41;5045517;28;20681;-87
2021/03/23 01:06:14;;;;;;;27.90;14.30;;;3.00;74.70;;;2.04;60.27;95341.97;5031436;28;20216;-85
2021/03/23 01:08:41;;;;;;;26.77;14.13;;;3.00;74.70;;;2.05;60.24;95336.66;5031649;28;20449;-86
2021/03/23 01:11:08;;;;;;;26.70;13.90;;;3.10;74.80;;;2.10;60.22;95344.03;5041139;28;20220;-87
2021/03/23 01:13:35;;;;;;;25.92;14.75;;;3.10;74.80;;;2.09;60.82;95342.38;5032424;28;20254;-87
2021/03/23 01:16:04;;;;;;;27.25;14.88;;;3.10;75.00;;;2.16;61.11;95334.91;5032145;28;20275;-86
2021/03/23 01:18:31;;;;;;;28.45;13.85;;;3.10;75.00;;;2.16;60.30;95330.56;5032030;28;20421;-86
2021/03/23 01:20:58;;;;;;;27.73;14.43;;;3.10;74.90;;;2.21;60.61;95338.75;5054881;28;20211;-86
2021/03/23 01:23:25;;;;;;;25.25;14.70;;;3.10;74.90;;;2.24;60.54;95340.28;5051848;28;20204;-86
2021/03/23 01:25:51;;;;;;;26.77;14.60;;;3.20;74.90;;;2.22;60.64;95345.59;5052247;28;20200;-86
2021/03/23 01:28:18;;;;;;;31.58;15.38;;;3.20;74.90;;;2.22;60.65;95337.81;5055009;28;20657;-86
2021/03/23 01:30:45;;;;;;;26.23;14.38;;;3.20;75.00;;;2.29;60.85;95339.88;5021749;28;20195;-86
2021/03/23 01:33:12;;;;;;;29.55;14.05;;;3.20;75.00;;;2.27;60.95;95334.00;5052028;28;20208;-86
2021/03/23 01:35:39;;;;;;;27.15;14.60;;;3.30;75.90;;;2.30;60.70;95331.97;5051647;28;20207;-86
2021/03/23 01:38:06;;;;;;;28.30;15.25;;;3.30;75.00;;;2.28;61.50;95339.03;5032951;28;20266;-86
2021/03/23 01:40:34;;;;;;;28.10;15.30;;;3.30;75.00;;;2.28;61.61;95341.63;5033292;28;20191;-85
2021/03/23 01:43:05;;;;;;;28.88;14.85;;;3.30;75.30;;;2.26;61.01;95337.53;5019382;28;20240;-86
2021/03/23 01:45:39;;;;;;;31.45;15.93;;;3.30;75.30;;;2.29;61.34;95337.28;5036231;28;20193;-85
2021/03/23 01:48:20;;;;;;;25.83;13.95;;;3.30;75.40;;;2.25;61.79;95334.16;5019152;28;20654;-85
2021/03/23 01:51:00;;;;;;;29.35;15.40;;;3.30;75.40;;;2.23;61.19;95334.28;5035447;28;20200;-86
2021/03/23 01:53:40;;;;;;;25.80;15.07;;;3.30;75.30;;;2.22;61.81;95335.22;5035790;28;20212;-86
2021/03/23 01:56:09;;;;;;;29.10;14.70;;;3.30;75.50;;;2.21;62.30;95338.75;5002859;28;20231;-85
2021/03/23 01:58:41;;;;;;;28.23;14.55;;;3.30;75.60;;;2.21;62.06;95343.94;5043842;28;20199;-86
2021/03/23 02:01:12;;;;;;;26.40;14.52;;;3.30;75.60;;;2.19;61.86;95345.81;5058451;28;20215;-86
2021/03/23 02:03:41;;;;;;;31.02;16.38;;;3.30;75.50;;;2.15;62.06;95328.94;5035904;28;20212;-86
2021/03/23 02:06:36;;;;;;;27.70;14.55;;;3.30;75.60;;;2.11;61.82;95337.06;5035881;28;20225;-85
2021/03/23 02:09:07;;;;;;;30.38;14.95;;;3.30;75.60;;;2.07;62.30;95333.94;5018748;28;20197;-86
2021/03/23 02:11:40;;;;;;;29.70;15.30;;;3.20;75.60;;;2.04;62.45;95329.03;5018849;28;20224;-86
2021/03/23 02:14:09;;;;;;;26.95;14.50;;;3.30;75.80;;;2.03;62.23;95327.38;5038419;28;20180;-85
2021/03/23 02:16:37;;;;;;;23.67;14.15;;;3.20;75.50;;;2.01;61.83;95324.91;5054866;28;20212;-86
2021/03/23 02:19:06;;;;;;;30.15;14.68;;;3.20;75.50;;;1.99;61.85;95323.38;5054837;28;20247;-85
2021/03/23 02:21:33;;;;;;;27.58;14.07;;;3.20;75.50;;;1.99;61.84;95336.31;5055157;28;20212;-86
2021/03/23 02:24:00;;;;;;;29.50;14.02;;;3.10;75.40;;;1.93;62.15;95324.75;5050695;28;20266;-86
2021/03/23 02:26:31;;;;;;;30.52;15.07;;;3.10;75.50;;;1.93;61.92;95314.41;5035320;28;20220;-86
2021/03/23 02:29:17;;;;;;;27.83;15.05;;;3.10;75.60;;;1.88;62.03;95314.78;5034708;28;20205;-86
2021/03/23 02:31:49;;;;;;;26.50;14.27;;;3.10;75.70;;;1.87;61.75;95315.72;5001876;28;20231;-85
2021/03/23 02:34:23;;;;;;;28.50;15.00;;;3.00;75.50;;;1.87;61.68;95314.91;5037528;28;20200;-86
2021/03/23 02:36:51;;;;;;;30.02;14.38;;;3.00;75.50;;;1.84;61.83;95315.16;5069126;28;20220;-85
2021/03/23 02:39:23;;;;;;;24.25;13.60;;;3.00;75.60;;;1.83;62.14;95311.75;5038270;28;20261;-86
2021/03/23 02:41:51;;;;;;;21.23;13.15;;;3.00;75.60;;;1.83;61.44;95304.00;5053794;28;20308;-86
2021/03/23 02:44:18;;;;;;;24.98;12.90;;;3.00;75.50;;;1.81;60.86;95308.47;5054483;28;20275;-85
2021/03/23 02:46:44;;;;;;;21.52;12.38;;;2.90;75.30;;;1.82;60.68;95296.34;5054515;28;20215;-85
2021/03/23 02:49:11;;;;;;;25.42;11.95;;;2.90;75.30;;;1.85;61.02;95312.44;5050470;28;20310;-85
2021/03/23 02:51:38;;;;;;;22.65;11.95;;;2.90;75.30;;;1.84;61.37;95302.22;5004763;28;20216;-85
2021/03/23 02:54:06;;;;;;;27.50;13.07;;;2.90;75.30;;;1.80;61.11;95296.47;5030261;28;20205;-85
2021/03/23 02:56:32;;;;;;;26.42;13.90;;;2.90;75.40;;;1.84;61.58;95308.19;5010028;28;20436;-86
2021/03/23 02:58:59;;;;;;;27.38;13.65;;;2.90;75.40;;;1.84;61.60;95310.78;5058503;28;20283;-85
2021/03/23 03:01:26;;;;;;;27.50;13.10;;;2.90;75.50;;;1.87;61.68;95314.91;5058957;28;20219;-84
2021/03/23 03:03:54;;;;;;;21.92;12.07;;;2.90;75.60;;;1.90;61.42;95312.06;5029743;28;20201;-85
2021/03/23 03:06:21;;;;;;;28.00;13.13;;;2.90;75.50;;;1.87;61.53;95310.53;5031957;28;20418;-85
2021/03/23 03:08:47;;;;;;;22.63;12.77;;;2.90;75.60;;;1.91;61.69;95319.69;5015505;28;20204;-85
2021/03/23 03:11:14;;;;;;;25.38;11.93;;;2.90;75.60;;;1.92;61.08;95318.72;5044484;28;20242;-86
2021/03/23 03:13:42;;;;;;;26.02;12.38;;;3.10;75.70;;;1.95;61.20;95325.41;5005286;28;20217;-85
2021/03/23 03:16:09;;;;;;;20.55;11.40;;;3.00;75.60;;;1.97;61.14;95327.91;5029897;28;20208;-85
2021/03/23 03:18:36;;;;;;;23.15;11.40;;;2.90;75.50;;;1.95;61.08;95320.25;5042965;28;20203;-86
2021/03/23 03:21:04;;;;;;;26.40;12.95;;;3.00;75.50;;;1.97;61.43;95318.34;5033545;28;20294;-86
2021/03/23 03:23:31;;;;;;;19.10;11.45;;;3.00;75.60;;;1.98;60.83;95317.41;5033691;28;20203;-86
2021/03/23 03:26:02;;;;;;;26.20;12.23;;;3.00;75.60;;;2.01;61.49;95321.50;5034162;28;20216;-86
2021/03/23 03:28:29;;;;;;;23.73;11.57;;;3.00;75.70;;;2.05;61.18;95325.47;5049879;28;20666;-85
2021/03/23 03:30:56;;;;;;;24.45;11.07;;;3.00;75.70;;;2.06;61.19;95321.94;5022663;28;20242;-86
2021/03/23 03:33:23;;;;;;;18.45;11.07;;;3.10;75.70;;;2.09;60.73;95319.09;5035952;28;20191;-85
2021/03/23 03:35:54;;;;;;;19.45;9.95;;;3.00;75.60;;;2.14;60.47;95323.91;5037686;28;20559;-85
2021/03/23 03:38:25;;;;;;;27.67;11.48;;;3.00;75.50;;;2.14;60.26;95316.94;5043878;28;20219;-85
2021/03/23 03:40:58;;;;;;;20.20;10.73;;;3.10;75.70;;;2.16;60.80;95317.63;5035859;28;20202;-85
2021/03/23 03:43:29;;;;;;;24.00;11.77;;;3.10;75.60;;;2.16;60.67;95316.81;5033334;28;20239;-85
2021/03/23 03:45:56;;;;;;;24.48;10.80;;;3.10;75.50;;;2.15;61.41;95313.41;5045496;28;20227;-86
2021/03/23 03:48:23;;;;;;;22.08;11.45;;;3.20;75.70;;;2.20;60.97;95316.41;5036624;28;20207;-86
2021/03/23 03:50:51;;;;;;;22.77;11.32;;;3.20;75.60;;;2.23;60.80;95316.16;5020762;28;20192;-86
2021/03/23 03:53:18;;;;;;;19.58;10.63;;;3.20;75.60;;;2.24;60.85;95310.03;5042531;28;20196;-84
2021/03/23 03:55:46;;;;;;;25.55;11.95;;;3.20;75.60;;;2.25;61.00;95321.22;5044609;28;20196;-85
2021/03/23 03:58:14;;;;;;;23.77;11.68;;;3.30;75.70;;;2.23;60.97;95318.75;5030359;28;20244;-85
2021/03/23 04:00:41;;;;;;;20.27;11.18;;;3.30;75.60;;;2.24;61.04;95320.38;5042098;28;20650;-85
2021/03/23 04:03:25;;;;;;;22.98;11.70;;;3.30;75.70;;;2.21;61.10;95318.06;5040930;28;20201;-85
2021/03/23 04:05:54;;;;;;;23.83;12.00;;;3.30;75.70;;;2.21;61.29;95325.81;5008365;28;20192;-85
2021/03/23 04:08:29;;;;;;;22.30;11.50;;;3.30;75.60;;;2.22;60.99;95324.03;5026029;28;20243;-85
2021/03/23 04:10:59;;;;;;;24.60;11.40;;;3.30;75.60;;;2.20;61.12;95319.00;5040811;28;20223;-84
2021/03/23 04:13:26;;;;;;;19.73;11.73;;;3.30;75.60;;;2.16;61.16;95320.22;5024311;28;20197;-85
2021/03/23 04:15:54;;;;;;;21.90;11.25;;;3.20;75.40;;;2.15;61.07;95316.00;5047633;28;20637;-84
2021/03/23 04:18:25;;;;;;;21.05;10.38;;;3.20;75.40;;;2.17;60.62;95321.03;5010396;28;20222;-84
2021/03/23 04:20:56;;;;;;;23.35;11.25;;;3.20;75.40;;;2.14;61.04;95313.53;5026872;28;20204;-86
2021/03/23 04:23:33;;;;;;;24.92;11.43;;;3.20;75.40;;;2.11;61.31;95308.63;5041944;28;20219;-85
2021/03/23 04:26:00;;;;;;;23.17;10.55;;;3.20;75.50;;;2.10;60.80;95317.31;5054840;28;20286;-86
2021/03/23 04:28:27;;;;;;;21.75;10.10;;;3.20;75.30;;;2.12;60.48;95318.03;5034157;28;20223;-84
2021/03/23 04:30:55;;;;;;;18.13;11.07;;;3.20;75.30;;;2.04;60.90;95322.06;5040102;28;20546;-85
2021/03/23 04:33:27;;;;;;;23.35;11.18;;;3.20;75.30;;;2.09;60.95;95319.09;5042353;28;20739;-85
2021/03/23 04:36:04;;;;;;;21.85;10.02;;;3.10;75.40;;;2.10;60.55;95323.34;5042787;28;20200;-85
2021/03/23 04:38:34;;;;;;;23.85;10.95;;;3.10;75.30;;;2.09;61.03;95332.03;5017957;28;20698;-84
2021/03/23 04:41:07;;;;;;;21.92;11.50;;;3.10;75.50;;;2.06;61.11;95327.09;5046281;28;20212;-85
2021/03/23 04:43:44;;;;;;;20.92;10.02;;;3.10;75.50;;;2.03;60.93;95332.56;5065626;28;20199;-86
2021/03/23 04:46:14;;;;;;;20.50;10.30;;;3.10;75.50;;;2.07;60.97;95333.94;5031993;28;20243;-86
2021/03/23 04:48:42;;;;;;;21.15;11.50;;;3.10;75.50;;;2.07;61.01;95336.50;5048886;28;20192;-86
2021/03/23 04:51:11;;;;;;;17.05;9.60;;;3.10;75.50;;;2.07;60.66;95339.91;5015658;28;20250;-85
2021/03/23 04:53:40;;;;;;;19.90;10.05;;;3.10;75.40;;;2.07;60.73;95341.69;5032498;28;20677;-86
2021/03/23 04:56:18;;;;;;;16.63;9.93;;;3.10;75.40;;;2.04;60.84;95334.19;5016127;28;20219;-85
2021/03/23 04:58:45;;;;;;;21.73;10.35;;;3.10;75.40;;;2.06;60.85;95343.47;5012213;28;20208;-85
2021/03/23 05:01:11;;;;;;;17.55;9.57;;;3.10;75.40;;;2.05;60.18;95339.25;4997691;28;20221;-84
2021/03/23 05:03:39;;;;;;;16.25;9.43;;;3.10;75.30;;;2.07;60.21;95337.31;5031779;28;20205;-87
2021/03/23 05:06:08;;;;;;;15.95;9.00;;;3.10;75.30;;;2.11;59.96;95342.25;5013972;28;20216;-86
2021/03/23 05:08:40;;;;;;;20.77;11.73;;;3.10;75.30;;;2.10;60.33;95341.44;5013754;28;20242;-87
2021/03/23 05:11:10;;;;;;;30.85;19.75;;;3.10;75.30;;;2.13;60.08;95341.16;4997384;28;20311;-87
2021/03/23 05:13:37;;;;;;;24.45;12.18;;;3.10;75.20;;;2.11;60.38;95335.28;5015531;28;20255;-86
2021/03/23 05:16:05;;;;;;;27.35;13.30;;;3.10;75.30;;;2.13;60.13;95340.38;5001417;28;20227;-86
2021/03/23 05:18:32;;;;;;;22.98;11.65;;;3.10;75.30;;;2.14;60.18;95332.47;5019742;28;20232;-86
2021/03/23 05:20:58;;;;;;;25.83;13.07;;;3.10;75.30;;;2.12;60.46;95339.53;5019936;28;20218;-86
2021/03/23 05:23:25;;;;;;;27.50;12.35;;;3.20;75.40;;;2.14;60.67;95334.25;5003141;28;20283;-86
2021/03/23 05:25:53;;;;;;;19.50;10.63;;;3.10;75.40;;;2.19;60.50;95345.81;5003331;28;20232;-86
2021/03/23 05:28:21;;;;;;;18.73;9.98;;;3.10;75.40;;;2.20;60.54;95331.94;5006107;28;20230;-87
2021/03/23 05:30:48;;;;;;;22.33;10.27;;;3.20;75.40;;;2.22;60.48;95332.66;5048564;28;20204;-86
2021/03/23 05:33:15;;;;;;;20.42;9.70;;;3.20;75.40;;;2.28;60.60;95346.00;5055823;28;20200;-86
2021/03/23 05:35:43;;;;;;;24.35;10.43;;;3.20;75.40;;;2.27;60.75;95342.59;5055808;28;20203;-86
2021/03/23 05:38:10;;;;;;;21.27;10.05;;;3.20;75.50;;;2.32;60.35;95348.22;5055983;28;20273;-87
2021/03/23 05:40:42;;;;;;;21.50;10.13;;;3.30;75.50;;;2.32;60.39;95348.22;5038169;28;20211;-86
2021/03/23 05:43:29;;;;;;;18.48;9.45;;;3.30;75.60;;;2.39;60.41;95362.28;5019913;28;20203;-87
2021/03/23 05:46:18;;;;;;;18.35;10.25;;;3.30;75.50;;;2.44;60.54;95350.69;5034684;28;20209;-86
2021/03/23 05:49:29;;;;;;;23.30;11.07;;;3.40;75.60;;;2.44;60.64;95354.13;5035385;28;20200;-86
2021/03/23 05:52:35;;;;;;;20.15;10.23;;;3.40;75.60;;;2.50;60.72;95357.94;5019517;28;20290;-86
2021/03/23 05:55:16;;;;;;;22.77;10.40;;;3.40;75.60;;;2.56;60.33;95368.63;5019591;28;20258;-86
2021/03/23 05:57:48;;;;;;;22.23;10.13;;;3.50;75.70;;;2.61;60.61;95367.38;5035829;28;20775;-86
2021/03/23 06:00:23;;;;;;;21.23;10.02;;;3.50;75.70;;;2.65;60.14;95363.56;5034134;28;20212;-86
2021/03/23 06:03:16;;;;;;;18.02;9.63;;;3.60;75.70;;;2.73;60.29;95371.50;5035706;28;20266;-86
2021/03/23 06:06:25;;;;;;;20.40;9.32;;;3.60;75.80;;;2.76;60.62;95370.44;5035470;28;20181;-86
2021/03/23 06:08:52;;;;;;;18.55;9.27;;;3.70;75.70;;;2.83;60.38;95374.13;5036573;28;20694;-86
2021/03/23 06:11:35;;;;;;;20.73;9.50;;;3.70;75.70;;;2.90;60.09;95375.25;5051978;28;20224;-86
2021/03/23 06:14:37;;;;;;;19.75;9.27;;;3.70;75.60;;;2.95;60.06;95364.47;5051951;28;20199;-87
2021/03/23 06:17:21;;;;;;;16.95;8.35;;;3.80;75.60;;;3.03;60.14;95377.59;5018433;28;20227;-86
2021/03/23 06:20:22;;;;;;;20.50;9.88;;;3.90;75.70;;;3.11;59.95;95380.31;5036016;28;20191;-85
2021/03/23 06:23:30;;;;;;;15.02;8.20;;;3.90;75.60;;;3.16;59.70;95372.97;5035170;28;20657;-85
2021/03/23 06:26:49;;;;;;;18.48;8.43;;;4.00;75.50;;;3.24;59.63;95379.28;5017826;28;20319;-86
2021/03/23 06:29:33;;;;;;;22.30;9.27;;;4.00;75.40;;;3.30;59.60;95386.50;5033770;28;20214;-86
2021/03/23 06:32:39;;;;;;;19.42;9.15;;;4.10;75.40;;;3.36;59.55;95394.53;5035079;28;20696;-86
2021/03/23 06:35:13;;;;;;;15.77;8.25;;;4.20;75.50;;;3.40;59.34;95395.09;5002973;28;20192;-86
2021/03/23 06:37:41;;;;;;;18.35;8.32;;;4.20;75.40;;;3.43;59.42;95400.03;5034516;28;20302;-86
2021/03/23 06:40:16;;;;;;;20.20;9.07;;;4.20;75.30;;;3.50;59.13;95393.34;5017996;28;20209;-85
2021/03/23 06:42:52;;;;;;;20.10;8.35;;;4.30;75.30;;;3.53;59.12;95400.84;5002277;28;20216;-86
2021/03/23 06:45:27;;;;;;;15.93;7.90;;;4.30;75.30;;;3.64;59.02;95412.84;5052492;28;20188;-86
2021/03/23 06:47:58;;;;;;;15.77;7.82;;;4.40;75.30;;;3.73;58.77;95406.03;5054425;28;20230;-85
2021/03/23 06:50:35;;;;;;;14.98;7.60;;;4.40;75.30;;;3.84;58.76;95405.91;5055051;28;20234;-86
2021/03/23 06:53:20;;;;;;;19.70;8.70;;;4.50;75.30;;;3.89;58.66;95409.84;5054688;28;20214;-86
2021/03/23 06:55:49;;;;;;;19.25;8.07;;;4.60;75.10;;;3.99;58.51;95413.25;5037670;28;20231;-87
2021/03/23 06:58:40;;;;;;;14.98;8.07;;;4.70;75.20;;;4.01;58.24;95408.75;5034056;28;20224;-86
2021/03/23 07:01:13;;;;;;;16.95;8.05;;;4.70;75.10;;;4.10;58.13;95422.66;5032101;28;20258;-84
2021/03/23 07:03:43;;;;;;;15.68;6.72;;;4.80;75.00;;;4.19;58.18;95419.25;5053427;28;20216;-87
2021/03/23 07:06:36;;;;;;;20.10;8.38;;;4.80;75.00;;;4.22;58.03;95421.53;5052503;28;20697;-86
2021/03/23 07:09:21;;;;;;;20.48;7.63;;;4.90;74.80;;;4.29;57.85;95416.63;5052054;28;20211;-86
2021/03/23 07:12:04;;;;;;;16.30;7.80;;;5.00;74.80;;;4.36;57.53;95422.91;5054687;28;20242;-84
2021/03/23 07:14:39;;;;;;;21.40;8.27;;;5.00;74.70;;;4.39;57.62;95421.78;5036969;28;20186;-86
2021/03/23 07:17:08;;;;;;;15.85;7.35;;;5.10;74.50;;;4.43;57.29;95429.16;5051975;28;20228;-86
2021/03/23 07:19:46;;;;;;;15.90;7.38;;;5.10;74.40;;;4.47;56.90;95425.31;5052183;28;20189;-86
2021/03/23 07:22:35;;;;;;;15.18;7.15;;;5.20;74.30;;;4.54;57.62;95428.19;5052057;28;20227;-85
2021/03/23 07:25:30;;;;;;;15.20;7.47;;;5.20;74.30;;;4.60;57.12;95430.22;5044920;28;20185;-85
2021/03/23 07:28:31;;;;;;;13.30;7.22;;;5.30;74.30;;;4.69;57.20;95428.53;5032190;28;20251;-85
2021/03/23 07:31:39;;;;;;;16.90;8.00;;;5.40;74.40;;;4.68;56.47;95424.28;5017043;28;20215;-86
2021/03/23 07:34:20;;;;;;;15.35;7.40;;;5.40;74.00;;;4.74;56.65;95426.31;5050389;28;20306;-85
2021/03/23 07:36:58;;;;;;;13.98;7.18;;;5.40;73.90;;;4.79;56.83;95423.28;5001008;28;20282;-86
2021/03/23 07:39:49;;;;;;;15.80;7.50;;;5.50;73.90;;;4.84;56.58;95435.88;5016607;28;20189;-86
2021/03/23 07:42:26;;;;;;;17.38;6.93;;;5.50;73.80;;;4.91;56.60;95431.75;5033279;28;20274;-85
2021/03/23 07:45:06;;;;;;;13.60;7.20;;;5.60;73.90;;;5.00;56.85;95423.06;5034289;28;20669;-85
2021/03/23 07:48:10;;;;;;;15.35;6.90;;;5.60;73.90;;;5.13;56.61;95417.53;5015960;28;20411;-86
2021/03/23 07:50:43;;;;;;;14.52;7.38;;;5.70;73.90;;;5.20;56.26;95420.34;5017456;28;20207;-87
2021/03/23 07:53:27;;;;;;;13.35;7.18;;;5.80;73.90;;;5.38;56.33;95434.22;5017038;28;20246;-85
2021/03/23 07:56:17;;;;;;;17.58;8.32;;;5.90;74.00;;;5.47;55.03;95426.50;5033336;28;20183;-85
2021/03/23 07:59:29;;;;;;;14.85;6.93;;;6.00;73.60;;;5.57;55.43;95427.25;5039037;28;20224;-86
2021/03/23 08:02:30;;;;;;;14.23;7.07;;;6.10;73.50;;;5.68;55.41;95423.63;5055758;28;20303;-85
2021/03/23 08:05:11;;;;;;;15.93;7.70;;;6.20;73.50;;;5.75;54.99;95428.06;5069749;28;20231;-86
2021/03/23 08:08:14;;;;;;;12.60;7.13;;;6.30;73.30;;;5.82;54.99;95415.25;5069344;28;20657;-86
2021/03/23 08:11:11;;;;;;;13.95;7.35;;;6.40;73.40;;;5.97;55.09;95412.13;5052284;28;20200;-86
2021/03/23 08:14:30;;;;;;;17.40;7.55;;;6.50;73.40;;;6.04;54.55;95411.44;5053314;28;20192;-87
2021/03/23 08:17:08;;;;;;;15.65;7.63;;;6.60;73.40;;;6.12;54.22;95417.66;5069130;28;20228;-86
2021/03/23 08:20:06;;;;;;;19.95;8.00;;;6.60;73.10;;;6.17;54.24;95415.41;5069410;28;20207;-87
2021/03/23 08:23:36;;;;;;;14.93;7.07;;;6.70;73.00;;;6.26;54.18;95406.69;5069446;28;20215;-86
2021/03/23 08:26:21;;;;;;;15.95;7.93;;;6.80;72.80;;;6.29;53.32;95411.59;5057985;28;20226;-87
2021/03/23 08:29:08;;;;;;;19.23;8.15;;;6.90;72.50;;;6.37;53.87;95418.63;5026451;28;20211;-87
2021/03/23 08:32:05;;;;;;;13.52;7.53;;;6.90;72.30;;;6.41;53.69;95431.22;5055976;28;20746;-87
2021/03/23 08:34:55;;;;;;;17.50;8.35;;;7.00;72.30;;;6.46;53.57;95414.28;5056678;28;20213;-88
2021/03/23 08:38:19;;;;;;;14.52;7.75;;;7.00;72.20;;;6.50;53.82;95418.25;5056213;28;20243;-88
2021/03/23 08:40:53;;;;;;;12.27;7.05;;;7.10;72.20;;;6.63;53.92;95423.84;5055958;28;20530;-88
2021/03/23 08:43:41;;;;;;;16.83;7.97;;;7.10;72.60;;;6.69;53.73;95410.19;5056129;28;20208;-88
2021/03/23 08:46:25;;;;;;;15.00;8.55;;;7.20;72.30;;;6.81;53.39;95417.75;5039031;28;20215;-88
2021/03/23 08:49:03;;;;;;;17.90;8.20;;;7.30;72.20;;;6.86;53.66;95410.25;5039889;28;20197;-88
2021/03/23 08:51:33;;;;;;;18.00;8.60;;;7.40;72.40;;;7.00;53.34;95412.28;5034182;28;20224;-87
2021/03/23 08:54:06;;;;;;;17.13;8.63;;;7.40;72.40;;;7.13;53.12;95417.06;5014395;28;20220;-88
2021/03/23 08:56:44;;;;;;;20.20;9.07;;;7.50;72.40;;;7.22;52.97;95417.91;4999990;28;20216;-88
2021/03/23 08:59:30;;;;;;;21.15;8.75;;;7.60;72.10;;;7.27;52.84;95426.06;5038985;28;20216;-88
2021/03/23 09:01:58;;;;;;;13.93;7.85;;;7.70;71.90;;;7.32;53.02;95421.22;5032043;28;20571;-88
2021/03/23 09:04:34;;;;;;;20.95;9.07;;;7.80;72.10;;;7.41;52.73;95426.44;5016136;28;20205;-88
2021/03/23 09:07:16;;;;;;;20.40;9.30;;;7.80;71.80;;;7.52;53.00;95437.41;5031947;28;20239;-87
2021/03/23 09:09:49;;;;;;;16.70;8.63;;;7.90;72.00;;;7.60;52.84;95428.75;5030621;28;20204;-88
2021/03/23 09:12:42;;;;;;;15.73;8.18;;;8.00;72.10;;;7.71;52.83;95439.91;5014142;28;20219;-86
2021/03/23 09:15:09;;;;;;;17.80;8.73;;;8.10;71.90;;;7.76;52.34;95424.56;5015123;28;20189;-88
2021/03/23 09:18:21;;;;;;;17.65;9.02;;;8.20;71.80;;;7.76;52.11;95429.78;5030221;28;20221;-87
2021/03/23 09:20:48;;;;;;;18.58;9.23;;;8.20;71.70;;;7.82;52.41;95431.75;5030275;28;20205;-87
2021/03/23 09:23:18;;;;;;;21.20;10.30;;;8.30;71.70;;;7.82;52.15;95432.56;5030582;28;20246;-87
2021/03/23 09:25:49;;;;;;;17.63;9.25;;;8.30;71.30;;;7.80;52.61;95431.91;5032140;28;20753;-87
2021/03/23 09:28:32;;;;;;;19.17;10.35;;;8.30;71.50;;;7.77;52.23;95437.44;5018205;28;20201;-85
2021/03/23 09:31:00;;;;;;;21.58;10.65;;;8.30;71.20;;;7.69;52.09;95430.44;5067771;28;20251;-87
2021/03/23 09:33:41;;;;;;;21.50;10.98;;;8.40;71.00;;;7.63;52.24;95435.47;5035298;28;20226;-87
2021/03/23 09:36:18;;;;;;;22.25;10.25;;;8.30;70.90;;;7.56;52.36;95430.06;5051878;28;20238;-88
2021/03/23 09:38:55;;;;;;;17.15;10.27;;;8.30;70.90;;;7.43;51.98;95440.97;5061057;28;20231;-87
2021/03/23 09:41:43;;;;;;;19.08;10.88;;;8.20;70.70;;;7.31;52.12;95437.00;5049897;28;20246;-87
2021/03/23 09:44:20;;;;;;;16.77;10.98;;;8.20;70.70;;;7.17;52.49;95436.63;5051563;28;20570;-87
2021/03/23 09:46:52;;;;;;;15.40;9.90;;;8.10;70.70;;;7.12;52.75;95438.09;5043751;28;20215;-87
2021/03/23 09:49:31;;;;;;;20.95;11.38;;;8.00;70.80;;;7.01;52.50;95431.38;5047716;28;20232;-88
2021/03/23 09:52:27;;;;;;;22.70;11.40;;;7.90;70.60;;;6.92;52.80;95435.75;5048342;28;20252;-87
2021/03/23 09:55:01;;;;;;;17.90;10.52;;;7.80;70.60;;;6.86;52.93;95437.19;5011341;28;20197;-87
2021/03/23 09:57:32;;;;;;;19.23;11.18;;;7.70;70.90;;;6.84;53.27;95433.09;5015890;28;20232;-88
2021/03/23 10:00:28;;;;;;;22.92;11.93;;;7.70;71.00;;;6.78;53.68;95433.72;5021299;28;20262;-86
2021/03/23 10:02:56;;;;;;;19.48;11.98;;;7.60;71.00;;;6.72;53.52;95435.94;5019777;28;20235;-87
2021/03/23 10:05:31;;;;;;;23.40;13.48;;;7.60;71.00;;;6.66;53.34;95433.16;5036909;28;20200;-87
2021/03/23 10:08:17;;;;;;;21.45;13.10;;;7.50;71.00;;;6.58;53.72;95436.53;5020542;28;20677;-87
2021/03/23 10:10:45;;;;;;;24.95;13.70;;;7.50;71.10;;;6.59;53.93;95434.75;5037587;28;20438;-87
2021/03/23 10:13:26;;;;;;;25.35;13.77;;;7.40;71.30;;;6.55;53.73;95429.00;5036909;28;20259;-85
2021/03/23 10:15:55;;;;;;;23.90;14.52;;;7.40;71.30;;;6.54;54.02;95424.78;5020939;28;20200;-85
2021/03/23 10:18:30;;;;;;;33.05;15.55;;;7.40;71.50;;;6.56;53.80;95428.03;5038360;28;20228;-86
2021/03/23 10:21:13;;;;;;;29.60;16.27;;;7.40;71.70;;;6.53;54.08;95431.78;5038731;28;20638;-87
2021/03/23 10:24:14;;;;;;;27.52;14.70;;;7.30;71.70;;;6.55;54.54;95431.63;5038474;28;20212;-87
2021/03/23 10:26:46;;;;;;;25.73;15.82;;;7.30;71.90;;;6.58;54.60;95431.31;5054892;28;20219;-85
2021/03/23 10:29:25;;;;;;;25.23;14.35;;;7.30;71.90;;;6.62;54.41;95429.22;5032256;28;20210;-85
2021/03/23 10:31:57;;;;;;;22.33;13.65;;;7.30;72.30;;;6.69;54.60;95425.84;5074385;28;20768;-85
2021/03/23 10:34:32;;;;;;;24.40;14.55;;;7.30;72.20;;;6.73;54.42;95423.75;5058481;28;20596;-86
2021/03/23 10:37:05;;;;;;;27.77;14.70;;;7.30;72.20;;;6.78;54.04;95420.69;5074598;28;20381;-86
2021/03/23 10:39:44;;;;;;;23.23;14.10;;;7.40;72.30;;;6.84;54.54;95430.47;5039328;28;20205;-86
2021/03/23 10:42:32;;;;;;;24.92;13.45;;;7.50;72.30;;;6.85;54.60;95425.09;5019324;28;20582;-86
2021/03/23 10:45:23;;;;;;;21.30;13.52;;;7.50;72.30;;;6.93;54.57;95423.50;5018508;28;20207;-86
2021/03/23 10:48:31;;;;;;;22.45;12.93;;;7.50;72.20;;;6.98;54.33;95418.63;5050356;28;20225;-85
2021/03/23 10:51:39;;;;;;;23.98;13.77;;;7.60;72.30;;;6.96;54.18;95424.00;5019333;28;20266;-86
2021/03/23 10:54:35;;;;;;;22.90;13.75;;;7.60;72.20;;;6.98;54.34;95416.03;5018483;28;20211;-85
2021/03/23 10:57:25;;;;;;;21.90;13.27;;;7.60;72.10;;;7.00;54.47;95421.91;5034410;28;20204;-85
2021/03/23 10:59:54;;;;;;;21.58;13.27;;;7.60;72.20;;;7.03;54.35;95416.38;5013742;28;20282;-86